Time;durP1;ratioP1;P1;durP2;ratioP2;P2;SDS_P1;SDS_P2;PMS_P1;PMS_P2;Temp;Humidity;BMP_temperature;BMP_pressure;BME280_temperature;BME280_humidity;BME280_pressure;Samples;Min_cycle;Max_cycle;Signal;HPM_P1;HPM_P2
2021/03/04 00:00:49;;;;;;;108.43;42.53;;;6.20;99.90;;;;;;5033317;28;20033;-59
2021/03/04 00:03:15;;;;;;;104.85;40.60;;;6.30;99.90;;;;;;5031878;28;20449;-57
2021/03/04 00:05:41;;;;;;;111.00;42.50;;;6.20;99.90;;;;;;5024572;28;20036;-60
2021/03/04 00:08:07;;;;;;;107.97;40.88;;;6.20;99.90;;;;;;5032507;28;20038;-58
2021/03/04 00:10:32;;;;;;;111.20;41.20;;;6.20;99.90;;;;;;5033022;28;20029;-57
2021/03/04 00:12:59;;;;;;;111.68;41.42;;;6.20;99.90;;;;;;5032506;28;20061;-59
2021/03/04 00:15:27;;;;;;;120.20;43.58;;;6.20;99.90;;;;;;5032456;28;20033;-58
2021/03/04 00:17:54;;;;;;;105.63;39.67;;;6.20;99.90;;;;;;5032655;28;20037;-59
2021/03/04 00:20:30;;;;;;;97.72;39.85;;;6.20;99.90;;;;;;5032720;28;20503;-58
2021/03/04 00:22:57;;;;;;;101.78;39.97;;;6.20;99.90;;;;;;5032098;28;20040;-57
2021/03/04 00:25:26;;;;;;;106.32;39.85;;;6.20;99.90;;;;;;5032186;28;20032;-54
2021/03/04 00:27:51;;;;;;;109.63;41.13;;;6.20;99.90;;;;;;5032023;28;20507;-57
2021/03/04 00:30:19;;;;;;;102.28;39.33;;;6.20;99.90;;;;;;5032252;28;20112;-57
2021/03/04 00:32:45;;;;;;;105.25;41.33;;;6.20;99.90;;;;;;5031661;28;20029;-58
2021/03/04 00:35:11;;;;;;;101.03;39.25;;;6.30;99.90;;;;;;5031781;28;20033;-55
2021/03/04 00:37:37;;;;;;;103.30;39.78;;;6.20;99.90;;;;;;5032136;28;20476;-56
2021/03/04 00:40:09;;;;;;;111.65;41.97;;;6.20;99.90;;;;;;5032144;28;20040;-56
2021/03/04 00:42:35;;;;;;;116.65;40.30;;;6.30;99.90;;;;;;5031563;28;20037;-56
2021/03/04 00:45:06;;;;;;;104.68;40.85;;;6.30;99.90;;;;;;5032413;28;20159;-57
2021/03/04 00:47:32;;;;;;;115.50;42.53;;;6.20;99.90;;;;;;5031388;28;20038;-59
2021/03/04 00:49:57;;;;;;;104.13;40.85;;;6.20;99.90;;;;;;5032238;28;20029;-58
2021/03/04 00:52:23;;;;;;;105.63;41.60;;;6.20;99.90;;;;;;5030786;28;20060;-59
2021/03/04 00:54:49;;;;;;;123.03;42.67;;;6.20;99.90;;;;;;5031242;28;20337;-57
2021/03/04 00:57:14;;;;;;;106.43;41.00;;;6.20;99.90;;;;;;5031928;28;20124;-57
2021/03/04 00:59:40;;;;;;;119.03;42.67;;;6.20;99.90;;;;;;5031975;28;20029;-58
2021/03/04 01:02:06;;;;;;;109.85;41.65;;;6.20;99.90;;;;;;5031410;28;20022;-56
2021/03/04 01:04:31;;;;;;;116.78;41.10;;;6.10;99.90;;;;;;5031591;28;20060;-57
2021/03/04 01:06:57;;;;;;;115.70;41.70;;;6.10;99.90;;;;;;5031820;28;20029;-58
2021/03/04 01:09:23;;;;;;;113.22;42.65;;;6.10;99.90;;;;;;5032006;28;20071;-58
2021/03/04 01:11:48;;;;;;;135.25;42.20;;;6.10;99.90;;;;;;5030944;28;20116;-58
2021/03/04 01:14:14;;;;;;;113.30;43.03;;;6.10;99.90;;;;;;5031653;28;20079;-57
2021/03/04 01:16:40;;;;;;;109.57;43.47;;;6.10;99.90;;;;;;5031617;28;20809;-59
2021/03/04 01:19:05;;;;;;;119.97;42.78;;;6.00;99.90;;;;;;5031602;28;20072;-56
2021/03/04 01:21:31;;;;;;;113.30;42.95;;;6.00;99.90;;;;;;5031251;28;20191;-56
2021/03/04 01:23:57;;;;;;;117.55;42.00;;;6.00;99.90;;;;;;5031601;28;20056;-55
2021/03/04 01:26:22;;;;;;;114.63;41.95;;;6.00;99.90;;;;;;5031105;28;20033;-58
2021/03/04 01:28:48;;;;;;;127.85;43.72;;;5.90;99.90;;;;;;5031172;28;20037;-62
2021/03/04 01:31:14;;;;;;;120.82;43.63;;;5.90;99.90;;;;;;5031375;28;20387;-54
2021/03/04 01:33:39;;;;;;;118.55;42.75;;;5.90;99.90;;;;;;5031158;28;20083;-60
2021/03/04 01:36:05;;;;;;;127.45;42.75;;;5.90;99.90;;;;;;5031327;28;20030;-55
2021/03/04 01:38:31;;;;;;;119.75;42.92;;;5.90;99.90;;;;;;5031258;28;20410;-55
2021/03/04 01:40:57;;;;;;;118.65;42.25;;;5.90;99.90;;;;;;5030095;28;20052;-58
2021/03/04 01:43:22;;;;;;;112.97;41.53;;;5.90;99.90;;;;;;5030517;28;20125;-58
2021/03/04 01:45:48;;;;;;;116.47;43.03;;;5.90;99.90;;;;;;5031463;28;20026;-56
2021/03/04 01:48:14;;;;;;;111.68;40.15;;;5.90;99.90;;;;;;5029640;28;20041;-53
2021/03/04 01:50:40;;;;;;;104.57;39.58;;;5.90;99.90;;;;;;5031265;28;20033;-57
2021/03/04 01:53:06;;;;;;;101.47;39.13;;;5.90;99.90;;;;;;5030913;28;20034;-59
2021/03/04 01:55:32;;;;;;;95.93;37.50;;;5.90;99.90;;;;;;5030879;28;20045;-60
2021/03/04 01:57:58;;;;;;;96.50;38.63;;;5.90;99.90;;;;;;5029681;28;20360;-59
2021/03/04 02:00:24;;;;;;;95.60;37.38;;;5.90;99.90;;;;;;5027734;28;20041;-60
2021/03/04 02:02:50;;;;;;;93.40;36.92;;;5.80;99.90;;;;;;5030666;28;20034;-56
2021/03/04 02:05:18;;;;;;;87.63;35.97;;;5.80;99.90;;;;;;5031112;28;20036;-55
2021/03/04 02:08:24;;;;;;;86.97;34.45;;;5.80;99.90;;;;;;5033063;28;20021;-56
2021/03/04 02:10:59;;;;;;;78.32;33.13;;;5.80;99.90;;;;;;5034949;28;20057;-55
2021/03/04 02:13:43;;;;;;;78.13;31.50;;;5.70;99.90;;;;;;5034690;28;20033;-57
2021/03/04 02:16:18;;;;;;;80.25;32.40;;;5.70;99.90;;;;;;5034430;28;20033;-58
2021/03/04 02:18:52;;;;;;;73.35;30.33;;;5.70;99.90;;;;;;5034062;28;20112;-58
2021/03/04 02:21:29;;;;;;;75.32;30.90;;;5.70;99.90;;;;;;5034764;28;20125;-57
2021/03/04 02:24:04;;;;;;;66.57;30.60;;;5.70;99.90;;;;;;5033590;28;20042;-58
2021/03/04 02:27:09;;;;;;;69.88;29.38;;;5.70;99.90;;;;;;5034654;28;20112;-56
2021/03/04 02:30:00;;;;;;;68.22;28.83;;;5.70;99.90;;;;;;4999608;28;20030;-60
2021/03/04 02:32:27;;;;;;;70.22;29.67;;;5.70;99.90;;;;;;5034057;28;20418;-55
2021/03/04 02:35:16;;;;;;;62.65;27.38;;;5.70;99.90;;;;;;5034756;28;20032;-57
2021/03/04 02:37:46;;;;;;;63.25;27.77;;;5.70;99.90;;;;;;5034117;28;20479;-58
2021/03/04 02:40:15;;;;;;;65.30;27.90;;;5.70;99.90;;;;;;5034241;28;20128;-56
2021/03/04 02:42:41;;;;;;;69.90;30.20;;;5.70;99.90;;;;;;5033665;28;20116;-56
2021/03/04 02:45:09;;;;;;;78.93;32.60;;;5.80;99.90;;;;;;5034128;28;20464;-58
2021/03/04 02:47:38;;;;;;;84.05;34.45;;;5.80;99.90;;;;;;5033496;28;20490;-56
2021/03/04 02:50:05;;;;;;;87.15;34.35;;;5.70;99.90;;;;;;5024238;28;20059;-59
2021/03/04 02:52:32;;;;;;;85.18;34.70;;;5.70;99.90;;;;;;5032934;28;20060;-55
2021/03/04 02:55:00;;;;;;;71.78;30.52;;;5.60;99.90;;;;;;5033962;28;20399;-59
2021/03/04 02:57:27;;;;;;;73.38;30.02;;;5.60;99.90;;;;;;5033305;28;20132;-59
2021/03/04 02:59:54;;;;;;;68.45;28.38;;;5.50;99.90;;;;;;5034293;28;20037;-56
2021/03/04 03:02:20;;;;;;;63.22;27.92;;;5.60;99.90;;;;;;5033405;28;20036;-57
2021/03/04 03:04:47;;;;;;;65.78;26.30;;;5.50;99.90;;;;;;5034531;28;20045;-57
2021/03/04 03:07:14;;;;;;;55.08;23.85;;;5.50;99.90;;;;;;5033025;28;20497;-57
2021/03/04 03:09:43;;;;;;;57.55;23.35;;;5.50;99.90;;;;;;5033881;28;20391;-57
2021/03/04 03:12:11;;;;;;;49.42;21.38;;;5.50;99.90;;;;;;5034197;28;20029;-58
2021/03/04 03:14:37;;;;;;;45.30;20.17;;;5.40;99.90;;;;;;5033549;28;20017;-59
2021/03/04 03:17:05;;;;;;;46.42;19.05;;;5.40;99.90;;;;;;5034438;28;20379;-56
2021/03/04 03:19:32;;;;;;;41.83;19.08;;;5.40;99.90;;;;;;5032587;28;20055;-57
2021/03/04 03:21:57;;;;;;;40.42;16.80;;;5.40;99.90;;;;;;5034489;28;20381;-58
2021/03/04 03:24:24;;;;;;;38.85;16.70;;;5.40;99.90;;;;;;5032515;28;20045;-53
2021/03/04 03:26:50;;;;;;;34.97;15.65;;;5.30;99.90;;;;;;5034389;28;20069;-56
2021/03/04 03:29:16;;;;;;;33.55;14.68;;;5.30;99.90;;;;;;5032969;28;20064;-54
2021/03/04 03:31:47;;;;;;;34.78;14.88;;;5.20;99.90;;;;;;5034228;28;20034;-58
2021/03/04 03:34:13;;;;;;;33.45;15.15;;;5.20;99.90;;;;;;5032753;28;20087;-58
2021/03/04 03:36:39;;;;;;;43.30;17.00;;;5.20;99.90;;;;;;5034020;28;20427;-56
2021/03/04 03:39:07;;;;;;;41.92;16.70;;;5.10;99.90;;;;;;5032557;28;20076;-55
2021/03/04 03:41:35;;;;;;;40.70;17.42;;;5.20;99.90;;;;;;5033713;28;20426;-58
2021/03/04 03:44:01;;;;;;;45.78;16.92;;;5.20;99.90;;;;;;5032907;28;20044;-56
2021/03/04 03:46:32;;;;;;;47.25;18.20;;;5.10;99.90;;;;;;5032713;28;20392;-58
2021/03/04 03:49:02;;;;;;;42.28;17.25;;;5.10;99.90;;;;;;5033265;28;20470;-61
2021/03/04 03:51:30;;;;;;;47.08;18.42;;;5.10;99.90;;;;;;5033808;28;20037;-57
2021/03/04 03:53:58;;;;;;;45.03;17.83;;;5.10;99.90;;;;;;5029939;28;20537;-59
2021/03/04 03:56:24;;;;;;;43.05;16.40;;;5.10;99.90;;;;;;5033861;28;20030;-58
2021/03/04 03:58:50;;;;;;;41.63;16.20;;;5.00;99.90;;;;;;5032064;28;20048;-57
2021/03/04 04:01:18;;;;;;;37.28;14.70;;;5.00;99.90;;;;;;5032806;28;20091;-55
2021/03/04 04:03:44;;;;;;;36.50;14.02;;;5.00;99.90;;;;;;5032539;28;20151;-57
2021/03/04 04:06:10;;;;;;;35.10;13.70;;;5.00;99.90;;;;;;5033436;28;20476;-54
2021/03/04 04:08:36;;;;;;;31.05;12.60;;;5.00;99.90;;;;;;5031536;28;20044;-55
2021/03/04 04:11:02;;;;;;;37.47;13.18;;;4.90;99.90;;;;;;5033684;28;20037;-60
2021/03/04 04:13:28;;;;;;;34.40;14.75;;;4.90;99.90;;;;;;5031565;28;20430;-56
2021/03/04 04:15:54;;;;;;;36.05;15.40;;;4.80;99.90;;;;;;5032830;28;20430;-57
2021/03/04 04:18:20;;;;;;;41.83;18.30;;;4.90;99.90;;;;;;5031815;28;20028;-56
2021/03/04 04:20:47;;;;;;;40.75;19.02;;;4.80;99.90;;;;;;5032247;28;20041;-58
2021/03/04 04:23:14;;;;;;;37.25;17.60;;;4.80;99.90;;;;;;5032199;28;20549;-56
2021/03/04 04:25:53;;;;;;;36.22;16.75;;;4.80;99.90;;;;;;5032451;28;20403;-55
2021/03/04 04:28:21;;;;;;;31.35;15.52;;;4.80;99.90;;;;;;5032742;28;20040;-57
2021/03/04 04:30:47;;;;;;;28.90;14.70;;;4.70;99.90;;;;;;5031549;28;20035;-54
2021/03/04 04:33:13;;;;;;;27.98;15.07;;;4.70;99.90;;;;;;5031734;28;20395;-58
2021/03/04 04:35:38;;;;;;;29.33;14.98;;;4.80;99.90;;;;;;5032812;28;20122;-57
2021/03/04 04:38:04;;;;;;;29.42;15.77;;;4.80;99.90;;;;;;5031689;28;20881;-53
2021/03/04 04:40:30;;;;;;;26.92;14.73;;;4.80;99.90;;;;;;5032318;28;20112;-56
2021/03/04 04:42:56;;;;;;;25.70;14.05;;;4.80;99.90;;;;;;5031579;28;20075;-57
2021/03/04 04:45:22;;;;;;;27.98;15.05;;;4.80;99.90;;;;;;5031272;28;20039;-55
2021/03/04 04:47:48;;;;;;;26.52;14.38;;;4.80;99.90;;;;;;5031695;28;20033;-58
2021/03/04 04:50:13;;;;;;;30.33;15.02;;;4.80;99.90;;;;;;5031317;28;20029;-59
2021/03/04 04:52:39;;;;;;;26.83;14.88;;;4.80;99.90;;;;;;5032214;28;20045;-59
2021/03/04 04:55:05;;;;;;;28.30;16.77;;;4.80;99.90;;;;;;5031498;28;20108;-59
2021/03/04 04:57:31;;;;;;;30.13;17.30;;;4.80;99.90;;;;;;5032264;28;20061;-57
2021/03/04 04:59:57;;;;;;;29.55;17.58;;;4.80;99.90;;;;;;5031340;28;20470;-58
2021/03/04 05:02:22;;;;;;;31.05;17.63;;;4.90;99.90;;;;;;5032224;28;20040;-58
2021/03/04 05:04:48;;;;;;;30.67;16.50;;;4.90;99.90;;;;;;5030562;28;20021;-55
2021/03/04 05:07:14;;;;;;;27.08;15.88;;;4.90;99.90;;;;;;5032314;28;20029;-55
2021/03/04 05:09:39;;;;;;;27.33;15.30;;;4.80;99.90;;;;;;5031222;28;20033;-54
2021/03/04 05:12:05;;;;;;;23.13;14.43;;;4.80;99.90;;;;;;5031643;28;20038;-56
2021/03/04 05:14:31;;;;;;;23.80;14.73;;;4.80;99.90;;;;;;5031118;28;20029;-57
2021/03/04 05:16:57;;;;;;;24.95;14.63;;;4.80;99.90;;;;;;5032326;28;20029;-56
2021/03/04 05:19:22;;;;;;;25.35;14.05;;;4.80;99.90;;;;;;5030348;28;20021;-61
2021/03/04 05:21:48;;;;;;;24.40;13.73;;;4.80;99.90;;;;;;5031432;28;20117;-58
2021/03/04 05:24:14;;;;;;;29.40;14.63;;;4.80;99.90;;;;;;5030971;28;20456;-56
2021/03/04 05:26:39;;;;;;;24.77;14.10;;;4.80;99.90;;;;;;5031830;28;20038;-58
2021/03/04 05:29:05;;;;;;;23.08;13.60;;;4.80;99.90;;;;;;5030855;28;20527;-58
2021/03/04 05:31:31;;;;;;;20.52;12.75;;;4.70;99.90;;;;;;5031494;28;20037;-53
2021/03/04 05:33:57;;;;;;;21.85;13.10;;;4.70;99.90;;;;;;5031129;28;20025;-56
2021/03/04 05:36:23;;;;;;;22.20;12.95;;;4.70;99.90;;;;;;5031240;28;20031;-58
2021/03/04 05:38:50;;;;;;;20.50;12.02;;;4.80;99.90;;;;;;5030799;28;20112;-56
2021/03/04 05:41:21;;;;;;;21.20;11.82;;;4.80;99.90;;;;;;5030942;28;20117;-58
2021/03/04 05:43:47;;;;;;;20.75;12.38;;;4.90;99.90;;;;;;5030630;28;20047;-57
2021/03/04 05:46:14;;;;;;;20.88;12.25;;;4.80;99.90;;;;;;5031577;28;20503;-60
2021/03/04 05:48:43;;;;;;;21.70;12.85;;;4.80;99.90;;;;;;5029894;28;20026;-56
2021/03/04 05:51:13;;;;;;;22.17;12.98;;;4.70;99.90;;;;;;5031221;28;20026;-57
2021/03/04 05:53:45;;;;;;;24.55;13.85;;;4.70;99.90;;;;;;5030338;28;20049;-57
2021/03/04 05:56:15;;;;;;;23.77;14.25;;;4.70;99.90;;;;;;5027822;28;20107;-60
2021/03/04 05:58:42;;;;;;;29.10;15.20;;;4.70;99.90;;;;;;5011746;28;20034;-56
2021/03/04 06:01:08;;;;;;;30.35;16.65;;;4.70;99.90;;;;;;5031417;28;20030;-59
2021/03/04 06:03:34;;;;;;;35.47;17.02;;;4.70;99.90;;;;;;5030357;28;20041;-55
2021/03/04 06:06:00;;;;;;;26.33;14.75;;;4.70;99.90;;;;;;5030757;28;20420;-54
2021/03/04 06:08:25;;;;;;;19.85;10.95;;;4.50;99.90;;;;;;5030554;28;20037;-59
2021/03/04 06:10:51;;;;;;;21.95;11.48;;;4.50;99.90;;;;;;5013634;28;20083;-58
2021/03/04 06:13:17;;;;;;;23.50;11.07;;;4.50;99.90;;;;;;5031094;28;20033;-56
2021/03/04 06:15:43;;;;;;;20.35;10.10;;;4.30;99.90;;;;;;5030409;28;20040;-58
2021/03/04 06:18:09;;;;;;;17.15;9.48;;;4.20;99.90;;;;;;5030981;28;20064;-58
2021/03/04 06:20:39;;;;;;;14.85;8.23;;;4.20;99.90;;;;;;5028637;28;20053;-57
2021/03/04 06:23:05;;;;;;;11.88;6.82;;;4.10;99.90;;;;;;5030686;28;20060;-59
2021/03/04 06:25:31;;;;;;;8.45;5.53;;;4.00;99.90;;;;;;5030061;28;20025;-58
2021/03/04 06:27:57;;;;;;;8.75;5.60;;;3.80;99.90;;;;;;5015149;28;20028;-59
2021/03/04 06:30:23;;;;;;;10.05;5.90;;;3.70;99.90;;;;;;5030335;28;20055;-57
2021/03/04 06:33:00;;;;;;;8.95;5.10;;;3.50;99.90;;;;;;5030422;28;20036;-58
2021/03/04 06:35:37;;;;;;;8.82;5.13;;;3.50;99.90;;;;;;5030526;28;20044;-57
2021/03/04 06:38:25;;;;;;;16.60;5.55;;;3.40;99.90;;;;;;5031219;28;20028;-55
2021/03/04 06:40:52;;;;;;;7.38;4.82;;;3.40;99.90;;;;;;5011909;28;20383;-57
2021/03/04 06:43:25;;;;;;;7.03;4.90;;;3.40;99.90;;;;;;5031128;28;20045;-57
2021/03/04 06:46:04;;;;;;;9.57;5.43;;;3.40;99.90;;;;;;5029742;28;20392;-56
2021/03/04 06:48:30;;;;;;;7.75;4.97;;;3.40;99.90;;;;;;5031077;28;20026;-56
2021/03/04 06:51:00;;;;;;;9.18;4.85;;;3.30;99.90;;;;;;5029918;28;20430;-58
2021/03/04 06:53:28;;;;;;;10.50;5.10;;;3.40;99.90;;;;;;5032065;28;20025;-57
2021/03/04 06:56:02;;;;;;;6.80;4.47;;;3.40;99.90;;;;;;5033551;28;20434;-53
2021/03/04 06:58:35;;;;;;;7.00;4.63;;;3.40;99.90;;;;;;5034667;28;20029;-59
2021/03/04 07:01:14;;;;;;;7.43;4.75;;;3.40;99.90;;;;;;5032973;28;20578;-58
2021/03/04 07:03:44;;;;;;;7.90;4.90;;;3.50;99.90;;;;;;5034600;28;20116;-56
2021/03/04 07:06:14;;;;;;;12.43;5.07;;;3.50;99.90;;;;;;5033240;28;20032;-56
2021/03/04 07:08:42;;;;;;;11.07;5.15;;;3.50;99.90;;;;;;5034550;28;20072;-57
2021/03/04 07:11:13;;;;;;;8.68;4.30;;;3.50;99.90;;;;;;5033226;28;20480;-58
2021/03/04 07:13:40;;;;;;;10.23;5.40;;;3.50;99.90;;;;;;5034608;28;20390;-58
2021/03/04 07:16:12;;;;;;;10.68;4.88;;;3.60;99.90;;;;;;5032450;28;20065;-58
2021/03/04 07:18:52;;;;;;;5.18;3.70;;;3.60;99.90;;;;;;5034088;28;20033;-55
2021/03/04 07:21:18;;;;;;;8.18;3.92;;;3.60;99.90;;;;;;5033332;28;20045;-56
2021/03/04 07:23:46;;;;;;;10.55;4.57;;;3.60;99.90;;;;;;5033334;28;20038;-58
2021/03/04 07:26:13;;;;;;;7.25;3.80;;;3.60;99.90;;;;;;5032880;28;20102;-57
2021/03/04 07:28:41;;;;;;;6.57;3.60;;;3.60;99.90;;;;;;5016640;28;20390;-58
2021/03/04 07:31:08;;;;;;;8.40;2.92;;;3.70;99.90;;;;;;5032588;28;20113;-57
2021/03/04 07:33:35;;;;;;;5.07;2.47;;;3.70;99.90;;;;;;5033611;28;20076;-60
2021/03/04 07:36:10;;;;;;;5.15;3.05;;;3.70;99.90;;;;;;5032914;28;20021;-54
2021/03/04 07:38:36;;;;;;;3.88;2.20;;;3.80;99.90;;;;;;5027871;28;20029;-58
2021/03/04 07:41:05;;;;;;;4.90;2.90;;;3.80;99.90;;;;;;5033033;28;20037;-56
2021/03/04 07:43:45;;;;;;;9.55;3.78;;;3.80;99.90;;;;;;5033385;28;20045;-56
2021/03/04 07:46:10;;;;;;;7.88;3.63;;;3.90;99.90;;;;;;5032438;28;20112;-56
2021/03/04 07:48:48;;;;;;;10.93;3.97;;;3.90;99.90;;;;;;5032895;28;20104;-58
2021/03/04 07:51:14;;;;;;;11.30;4.10;;;3.80;99.90;;;;;;5030806;28;20030;-57
2021/03/04 07:53:43;;;;;;;16.05;5.72;;;3.90;99.90;;;;;;5033015;28;20493;-61
2021/03/04 07:56:09;;;;;;;13.63;4.57;;;3.90;99.90;;;;;;5030613;28;20049;-59
2021/03/04 07:58:38;;;;;;;17.27;5.47;;;4.00;99.90;;;;;;5032572;28;20022;-56
2021/03/04 08:01:11;;;;;;;17.23;6.60;;;4.00;99.90;;;;;;5031331;28;20044;-56
2021/03/04 08:03:50;;;;;;;19.10;6.82;;;4.00;99.90;;;;;;5028070;28;20107;-55
2021/03/04 08:06:17;;;;;;;21.17;8.10;;;4.20;99.90;;;;;;5030921;28;20077;-58
2021/03/04 08:08:46;;;;;;;23.83;8.20;;;4.10;99.90;;;;;;5032054;28;20026;-60
2021/03/04 08:11:29;;;;;;;26.10;9.52;;;4.10;99.90;;;;;;5031325;28;20033;-57
2021/03/04 08:13:55;;;;;;;19.85;8.80;;;4.20;99.90;;;;;;5014009;28;20076;-56
2021/03/04 08:16:21;;;;;;;20.55;9.13;;;4.20;99.90;;;;;;5028302;28;20036;-55
2021/03/04 08:18:58;;;;;;;20.23;9.20;;;4.30;99.90;;;;;;5031965;28;20028;-58
2021/03/04 08:21:25;;;;;;;25.83;10.65;;;4.20;99.90;;;;;;5012597;28;20041;-59
2021/03/04 08:23:51;;;;;;;30.50;11.20;;;4.30;99.90;;;;;;5020470;28;20041;-57
2021/03/04 08:26:36;;;;;;;26.20;13.15;;;4.20;99.90;;;;;;5031987;28;20033;-58
2021/03/04 08:29:10;;;;;;;26.20;12.80;;;4.30;99.90;;;;;;5033102;28;20116;-58
2021/03/04 08:31:48;;;;;;;26.73;13.00;;;4.20;99.90;;;;;;5032057;28;20079;-58
2021/03/04 08:34:13;;;;;;;35.72;14.60;;;4.20;99.90;;;;;;5032320;28;20399;-57
2021/03/04 08:36:44;;;;;;;30.88;14.88;;;4.30;99.90;;;;;;5032171;28;20028;-57
2021/03/04 08:39:10;;;;;;;33.20;17.27;;;4.30;99.90;;;;;;5032648;28;20025;-57
2021/03/04 08:41:37;;;;;;;27.30;15.50;;;4.40;99.90;;;;;;5031041;28;20066;-58
2021/03/04 08:44:29;;;;;;;30.63;15.88;;;4.30;99.90;;;;;;5031884;28;20033;-55
2021/03/04 08:46:54;;;;;;;30.75;15.32;;;4.40;99.90;;;;;;5028911;28;20041;-58
2021/03/04 08:49:21;;;;;;;27.17;14.48;;;4.40;99.90;;;;;;5031364;28;20022;-58
2021/03/04 08:51:47;;;;;;;70.28;34.67;;;4.40;99.90;;;;;;5031778;28;20033;-58
2021/03/04 08:54:19;;;;;;;26.60;14.18;;;4.30;99.90;;;;;;5032183;28;20087;-56
2021/03/04 08:56:58;;;;;;;26.42;13.13;;;4.30;99.90;;;;;;5031003;28;20041;-59
2021/03/04 08:59:26;;;;;;;23.33;12.98;;;4.40;99.90;;;;;;5013409;28;20419;-60
2021/03/04 09:01:52;;;;;;;23.48;13.45;;;4.40;99.90;;;;;;5031129;28;20037;-59
2021/03/04 09:04:20;;;;;;;26.73;13.88;;;4.40;99.90;;;;;;5030265;28;20033;-61
2021/03/04 09:06:45;;;;;;;25.88;13.57;;;4.50;99.90;;;;;;5030155;28;20037;-59
2021/03/04 09:09:23;;;;;;;26.17;13.25;;;4.50;99.90;;;;;;5032003;28;20435;-59
2021/03/04 09:11:50;;;;;;;24.75;13.32;;;4.50;99.90;;;;;;5030373;28;20029;-60
2021/03/04 09:14:17;;;;;;;25.85;14.50;;;4.60;99.90;;;;;;5030807;28;20387;-58
2021/03/04 09:16:45;;;;;;;25.65;14.40;;;4.60;99.90;;;;;;5031057;28;20053;-60
2021/03/04 09:19:22;;;;;;;30.15;15.80;;;4.70;99.90;;;;;;5031213;28;20112;-61
2021/03/04 09:21:48;;;;;;;25.17;15.07;;;4.70;99.90;;;;;;5031316;28;20033;-60
2021/03/04 09:24:14;;;;;;;24.90;14.63;;;4.70;99.90;;;;;;5031750;28;20048;-58
2021/03/04 09:26:40;;;;;;;25.95;15.65;;;4.60;99.90;;;;;;5030208;28;20033;-60
2021/03/04 09:29:06;;;;;;;25.33;14.35;;;4.70;99.90;;;;;;5030980;28;20035;-60
2021/03/04 09:31:32;;;;;;;29.25;16.75;;;4.80;99.90;;;;;;5031281;28;20055;-62
2021/03/04 09:34:00;;;;;;;29.40;16.85;;;4.80;99.90;;;;;;5031832;28;20029;-59
2021/03/04 09:36:26;;;;;;;33.95;17.02;;;4.80;99.90;;;;;;5030823;28;20029;-60
2021/03/04 09:38:53;;;;;;;23.88;14.55;;;4.90;99.90;;;;;;5031607;28;20037;-61
2021/03/04 09:41:21;;;;;;;22.27;13.43;;;4.90;99.90;;;;;;5030760;28;20442;-60
2021/03/04 09:43:49;;;;;;;19.13;12.23;;;5.00;99.90;;;;;;5029016;28;20099;-60
2021/03/04 09:46:31;;;;;;;20.75;11.43;;;5.00;99.90;;;;;;5028785;28;20029;-60
2021/03/04 09:49:15;;;;;;;18.42;10.52;;;5.10;99.90;;;;;;5016861;28;20033;-58
2021/03/04 09:51:43;;;;;;;15.18;10.00;;;5.20;99.90;;;;;;5028164;28;20349;-57
2021/03/04 09:54:10;;;;;;;21.63;10.13;;;5.20;99.90;;;;;;5031693;28;20037;-59
2021/03/04 09:56:36;;;;;;;12.68;8.55;;;5.40;99.90;;;;;;5029601;28;20092;-60
2021/03/04 09:59:02;;;;;;;13.77;8.20;;;5.30;99.90;;;;;;5026992;28;20030;-59
2021/03/04 10:01:33;;;;;;;10.25;7.22;;;5.40;99.90;;;;;;5029488;28;20029;-61
2021/03/04 10:04:08;;;;;;;12.07;7.57;;;5.30;99.90;;;;;;5024482;28;20072;-59
2021/03/04 10:06:38;;;;;;;11.20;6.90;;;5.40;99.90;;;;;;5030776;28;20112;-62
2021/03/04 10:09:08;;;;;;;12.98;7.68;;;5.50;99.90;;;;;;5030945;28;20040;-58
2021/03/04 10:11:41;;;;;;;9.25;6.40;;;5.60;99.90;;;;;;5029911;28;20053;-57
2021/03/04 10:14:13;;;;;;;7.90;5.72;;;5.60;99.90;;;;;;5030728;28;20030;-59
2021/03/04 10:16:42;;;;;;;10.73;5.93;;;5.70;99.90;;;;;;5030100;28;20060;-59
2021/03/04 10:19:09;;;;;;;7.72;5.55;;;5.80;99.90;;;;;;5028867;28;20026;-60
2021/03/04 10:21:35;;;;;;;12.68;6.32;;;5.90;99.90;;;;;;5030284;28;20025;-56
2021/03/04 10:24:02;;;;;;;6.43;4.55;;;5.90;99.90;;;;;;5030751;28;20116;-59
2021/03/04 10:26:28;;;;;;;8.23;4.57;;;5.90;99.90;;;;;;5029861;28;20029;-59
2021/03/04 10:28:57;;;;;;;5.97;3.97;;;5.90;99.90;;;;;;5032535;28;20036;-61
2021/03/04 10:31:24;;;;;;;10.50;4.38;;;5.80;99.90;;;;;;5034227;28;20033;-56
2021/03/04 10:33:49;;;;;;;6.10;4.72;;;5.90;99.90;;;;;;5033675;28;20083;-56
2021/03/04 10:36:15;;;;;;;6.13;4.15;;;5.90;99.90;;;;;;5033586;28;20026;-58
2021/03/04 10:38:41;;;;;;;7.43;4.60;;;5.90;99.90;;;;;;5034227;28;20031;-61
2021/03/04 10:41:06;;;;;;;6.25;4.95;;;5.80;99.90;;;;;;5034105;28;20467;-57
2021/03/04 10:43:32;;;;;;;13.68;8.32;;;5.90;99.90;;;;;;5034248;28;20136;-60
2021/03/04 10:45:58;;;;;;;12.35;6.60;;;5.90;99.90;;;;;;5033419;28;20034;-61
2021/03/04 10:48:23;;;;;;;10.10;6.22;;;5.80;99.90;;;;;;5033246;28;20029;-60
2021/03/04 10:50:50;;;;;;;4.72;3.42;;;5.90;99.90;;;;;;5033915;28;20029;-59
2021/03/04 10:53:16;;;;;;;3.70;2.85;;;5.90;99.90;;;;;;5034554;28;20503;-58
2021/03/04 10:55:41;;;;;;;4.05;2.75;;;5.80;99.90;;;;;;5033105;28;20140;-60
2021/03/04 10:58:07;;;;;;;4.95;3.00;;;5.80;99.90;;;;;;5033407;28;20053;-61
2021/03/04 11:00:34;;;;;;;5.40;3.15;;;5.80;99.90;;;;;;5033016;28;20738;-60
2021/03/04 11:03:00;;;;;;;3.55;2.40;;;5.80;99.90;;;;;;5034115;28;20055;-61
2021/03/04 11:05:26;;;;;;;4.60;2.80;;;5.80;99.90;;;;;;5016099;28;20025;-61
2021/03/04 11:07:51;;;;;;;4.43;3.10;;;5.80;99.90;;;;;;5033718;28;20033;-61
2021/03/04 11:10:17;;;;;;;4.75;3.13;;;5.90;99.90;;;;;;5033215;28;20387;-60
2021/03/04 11:12:43;;;;;;;6.03;3.72;;;5.90;99.90;;;;;;5015375;28;20482;-61
2021/03/04 11:15:09;;;;;;;4.10;2.90;;;5.90;99.90;;;;;;5033656;28;20033;-60
2021/03/04 11:17:35;;;;;;;4.18;2.20;;;5.90;99.90;;;;;;5032934;28;20033;-61
2021/03/04 11:20:01;;;;;;;1.80;1.40;;;5.90;99.90;;;;;;5033160;28;20099;-58
2021/03/04 11:22:27;;;;;;;1.75;1.40;;;5.90;99.90;;;;;;5032775;28;20040;-59
2021/03/04 11:24:52;;;;;;;2.25;1.40;;;5.80;99.90;;;;;;5016180;28;20043;-61
2021/03/04 11:27:18;;;;;;;1.27;1.17;;;5.80;99.90;;;;;;5015718;28;20033;-58
2021/03/04 11:29:47;;;;;;;1.45;0.90;;;5.80;99.90;;;;;;5033800;28;20033;-60
2021/03/04 11:32:14;;;;;;;4.43;1.50;;;5.80;99.90;;;;;;5032978;28;20117;-60
2021/03/04 11:34:39;;;;;;;5.32;1.83;;;5.70;99.90;;;;;;5033958;28;20092;-58
2021/03/04 11:37:06;;;;;;;2.70;1.17;;;5.90;99.90;;;;;;5032949;28;20117;-59
2021/03/04 11:39:31;;;;;;;4.20;1.30;;;5.90;99.90;;;;;;5031036;28;20025;-59
2021/03/04 11:41:57;;;;;;;4.70;1.30;;;5.90;99.90;;;;;;5032145;28;20080;-61
2021/03/04 11:44:23;;;;;;;2.20;1.10;;;6.00;99.90;;;;;;5033205;28;20471;-60
2021/03/04 11:46:49;;;;;;;1.85;1.10;;;6.00;99.90;;;;;;5030627;28;20083;-59
2021/03/04 11:49:15;;;;;;;0.70;0.70;;;6.10;99.90;;;;;;5032872;28;20026;-60
2021/03/04 11:51:40;;;;;;;1.23;0.75;;;6.30;99.90;;;;;;5024480;28;20464;-60
2021/03/04 11:54:06;;;;;;;1.65;1.00;;;6.40;99.90;;;;;;5024567;28;20064;-62
2021/03/04 11:56:34;;;;;;;1.13;1.02;;;6.40;99.90;;;;;;5031221;28;20044;-62
2021/03/04 11:59:03;;;;;;;4.82;1.50;;;6.60;99.90;;;;;;5032559;28;20026;-57
2021/03/04 12:01:29;;;;;;;1.33;0.80;;;6.60;99.90;;;;;;5031199;28;20017;-56
2021/03/04 12:03:55;;;;;;;3.40;1.30;;;6.60;99.90;;;;;;5033001;28;20045;-59
2021/03/04 12:06:21;;;;;;;1.20;0.90;;;6.60;99.90;;;;;;5031572;28;20091;-57
2021/03/04 12:08:47;;;;;;;1.05;0.95;;;6.50;99.90;;;;;;5032646;28;20786;-58
2021/03/04 12:11:13;;;;;;;2.30;1.55;;;6.50;99.90;;;;;;5031809;28;20025;-58
2021/03/04 12:13:38;;;;;;;6.70;1.83;;;6.60;99.90;;;;;;5031946;28;20431;-58
2021/03/04 12:16:06;;;;;;;2.63;1.40;;;6.80;99.90;;;;;;5031821;28;20025;-58
2021/03/04 12:18:35;;;;;;;4.95;1.67;;;6.80;99.90;;;;;;5032024;28;20140;-59
2021/03/04 12:21:02;;;;;;;3.85;1.60;;;6.70;99.90;;;;;;5031425;28;20385;-57
2021/03/04 12:23:29;;;;;;;2.15;1.10;;;6.60;99.90;;;;;;5031735;28;20103;-60
2021/03/04 12:25:55;;;;;;;5.68;3.45;;;6.60;99.90;;;;;;5031603;28;20045;-58
2021/03/04 12:28:21;;;;;;;4.93;1.50;;;6.60;99.90;;;;;;5032089;28;20032;-58
2021/03/04 12:30:46;;;;;;;3.28;1.70;;;6.60;99.90;;;;;;5032614;28;20033;-59
2021/03/04 12:33:12;;;;;;;3.72;2.00;;;6.70;99.90;;;;;;5031195;28;20127;-60
2021/03/04 12:35:38;;;;;;;3.33;2.28;;;6.70;99.90;;;;;;5027962;28;20095;-60
2021/03/04 12:38:05;;;;;;;2.67;1.50;;;6.70;99.90;;;;;;5031383;28;20025;-59
2021/03/04 12:40:32;;;;;;;3.45;1.80;;;6.80;99.90;;;;;;5032621;28;20526;-59
2021/03/04 12:42:58;;;;;;;1.50;1.38;;;6.80;99.90;;;;;;5030668;28;20076;-58
2021/03/04 12:45:24;;;;;;;2.10;1.60;;;6.60;99.90;;;;;;5031868;28;20033;-58
2021/03/04 12:47:50;;;;;;;4.07;1.75;;;6.60;99.90;;;;;;5030253;28;20042;-58